Time;durP1;ratioP1;P1;durP2;ratioP2;P2;SDS_P1;SDS_P2;PMS_P1;PMS_P2;Temp;Humidity;BMP_temperature;BMP_pressure;BME280_temperature;BME280_humidity;BME280_pressure;Samples;Min_cycle;Max_cycle;Signal;HPM_P1;HPM_P2
2023/06/21 00:00:15;;;;;;;19.00;16.00;;;;;;;21.68;68.38;98468.60;105085;1257;99191;-60
2023/06/21 00:02:43;;;;;;;22.00;16.50;;;;;;;21.72;68.29;98470.27;105144;1254;97899;-61
2023/06/21 00:05:11;;;;;;;21.10;15.70;;;;;;;21.66;68.63;98468.42;105023;1260;112236;-60
2023/06/21 00:07:40;;;;;;;21.20;16.20;;;;;;;21.57;68.73;98471.20;104940;1269;99178;-60
2023/06/21 00:10:08;;;;;;;22.70;16.10;;;;;;;21.48;68.97;98470.29;104973;1266;108429;-61
2023/06/21 00:12:36;;;;;;;18.20;15.20;;;;;;;21.41;69.18;98475.04;105064;1269;97974;-60
2023/06/21 00:15:03;;;;;;;19.30;15.90;;;;;;;21.38;69.24;98480.99;105074;1267;98270;-60
2023/06/21 00:17:31;;;;;;;20.40;16.20;;;;;;;21.36;69.37;98486.41;105074;1258;111103;-60
2023/06/21 00:19:58;;;;;;;21.50;15.40;;;;;;;21.35;69.51;98493.09;105020;1257;97928;-60
2023/06/21 00:22:25;;;;;;;20.10;14.70;;;;;;;21.32;69.63;98503.35;105019;1259;97975;-61
2023/06/21 00:24:52;;;;;;;19.90;15.00;;;;;;;21.29;69.86;98506.36;104954;1270;98806;-61
2023/06/21 00:27:19;;;;;;;20.50;15.60;;;;;;;21.29;70.01;98508.11;104947;1257;97983;-61
2023/06/21 00:29:47;;;;;;;21.40;16.20;;;;;;;21.29;70.33;98507.08;104995;1260;97909;-61
2023/06/21 00:32:14;;;;;;;21.80;16.00;;;;;;;21.31;70.19;98509.95;105020;1258;98006;-60
2023/06/21 00:34:41;;;;;;;25.40;18.10;;;;;;;21.34;70.42;98510.20;105016;1257;97986;-60
2023/06/21 00:37:11;;;;;;;23.60;19.10;;;;;;;21.37;70.35;98507.59;105016;1255;99162;-60
2023/06/21 00:39:39;;;;;;;23.60;16.90;;;;;;;21.35;70.62;98499.70;105103;1267;98292;-60
2023/06/21 00:42:07;;;;;;;24.50;16.30;;;;;;;21.18;71.10;98499.86;105045;1257;112170;-61
2023/06/21 00:44:35;;;;;;;22.00;16.20;;;;;;;21.08;71.45;98495.33;104996;1255;99067;-61
2023/06/21 00:47:02;;;;;;;19.70;16.60;;;;;;;20.94;72.04;98493.51;104944;1268;107566;-61
2023/06/21 00:49:29;;;;;;;20.20;16.30;;;;;;;20.87;72.09;98493.90;105055;1267;98911;-60
2023/06/21 00:51:59;;;;;;;19.90;15.90;;;;;;;20.88;72.08;98491.30;104999;1266;97918;-61
2023/06/21 00:54:29;;;;;;;20.30;16.10;;;;;;;20.96;71.95;98493.44;104929;1265;112158;-60
2023/06/21 00:56:57;;;;;;;20.80;15.90;;;;;;;21.02;72.09;98489.10;105048;1257;98861;-61
2023/06/21 00:59:28;;;;;;;21.70;16.00;;;;;;;21.05;72.09;98489.35;104982;1273;108563;-60
2023/06/21 01:01:58;;;;;;;;;;;;;;;21.07;72.26;98490.71;104926;1255;98070;-63
2023/06/21 01:04:28;;;;;;;19.30;16.10;;;;;;;21.05;72.39;98491.44;104860;1266;98709;-60
2023/06/21 01:07:21;;;;;;;21.30;15.90;;;;;;;21.06;72.52;98489.43;105041;1257;111221;-61
2023/06/21 01:10:33;;;;;;;23.50;16.00;;;;;;;21.05;72.83;98493.48;105038;1258;98744;-60
2023/06/21 01:13:19;;;;;;;26.40;17.90;;;;;;;20.94;73.62;98492.79;104652;1276;108190;-60
2023/06/21 01:15:50;;;;;;;23.00;15.90;;;;;;;20.84;73.90;98484.66;104482;1260;99257;-60
2023/06/21 01:18:21;;;;;;;20.50;16.20;;;;;;;20.74;74.44;98478.86;104502;1263;98009;-61
2023/06/21 01:20:53;;;;;;;23.60;16.20;;;;;;;20.66;74.66;98478.27;104562;1264;111239;-60
2023/06/21 01:23:50;;;;;;;19.30;16.20;;;;;;;20.63;74.47;98482.36;104595;1264;98126;-62
2023/06/21 01:26:41;;;;;;;18.10;15.70;;;;;;;20.68;74.18;98487.02;104464;1279;108732;-60
2023/06/21 01:29:13;;;;;;;22.70;15.70;;;;;;;20.76;74.13;98490.51;104529;1263;99199;-60
2023/06/21 01:31:43;;;;;;;21.40;16.00;;;;;;;20.86;74.06;98501.46;104638;1264;99362;-61
2023/06/21 01:34:15;;;;;;;21.70;15.90;;;;;;;20.90;73.91;98507.38;104525;1264;111352;-60
2023/06/21 01:36:43;;;;;;;25.60;17.00;;;;;;;20.91;73.98;98505.81;104548;1273;99573;-60
2023/06/21 01:39:10;;;;;;;19.90;15.50;;;;;;;20.86;74.30;98500.90;104589;1264;108702;-60
2023/06/21 01:41:38;;;;;;;21.70;16.80;;;;;;;20.78;74.63;98497.92;104573;1264;97979;-60
2023/06/21 01:44:13;;;;;;;21.20;17.10;;;;;;;20.71;74.86;98495.09;104775;1273;98024;-60
2023/06/21 01:46:42;;;;;;;21.70;16.80;;;;;;;20.67;74.96;98495.13;104592;1269;111833;-60
2023/06/21 01:49:10;;;;;;;20.70;16.90;;;;;;;20.67;75.02;98489.39;104595;1264;98927;-60
2023/06/21 01:51:41;;;;;;;26.80;16.80;;;;;;;20.66;75.06;98483.73;105039;1260;108530;-60
2023/06/21 01:54:09;;;;;;;22.00;16.50;;;;;;;20.67;74.93;98481.11;105014;1257;99226;-60
2023/06/21 01:56:40;;;;;;;19.50;16.70;;;;;;;20.63;75.04;98478.48;104999;1267;98437;-60
2023/06/21 01:59:08;;;;;;;21.70;16.80;;;;;;;20.57;75.09;98476.67;105080;1273;111235;-60
2023/06/21 02:01:39;;;;;;;19.20;16.00;;;;;;;20.58;74.99;98478.75;104997;1263;99329;-60
2023/06/21 02:04:08;;;;;;;19.90;16.40;;;;;;;20.64;74.85;98480.47;105028;1255;107542;-60
2023/06/21 02:06:39;;;;;;;19.70;15.50;;;;;;;20.66;74.86;98482.88;105030;1258;97883;-60
2023/06/21 02:09:09;;;;;;;19.30;15.40;;;;;;;20.68;74.82;98479.31;105069;1260;98413;-60
2023/06/21 02:11:36;;;;;;;23.70;16.80;;;;;;;20.67;74.59;98475.24;105032;1259;111300;-60
2023/06/21 02:14:05;;;;;;;21.10;15.00;;;;;;;20.72;74.85;98473.38;105056;1254;97918;-60
2023/06/21 02:16:33;;;;;;;17.50;14.60;;;;;;;20.75;74.67;98476.73;105061;1258;107237;-60
2023/06/21 02:19:02;;;;;;;21.10;16.20;;;;;;;20.75;74.82;98475.52;104982;1265;98031;-60
2023/06/21 02:21:29;;;;;;;22.00;16.10;;;;;;;20.68;74.95;98474.06;104987;1258;97925;-60
2023/06/21 02:23:56;;;;;;;18.40;15.00;;;;;;;20.66;74.81;98467.92;104931;1258;97952;-60
2023/06/21 02:26:23;;;;;;;17.90;15.80;;;;;;;20.64;75.09;98469.73;104996;1258;99304;-66
2023/06/21 02:28:51;;;;;;;20.60;15.60;;;;;;;20.60;74.99;98466.52;104847;1267;97928;-63
2023/06/21 02:31:21;;;;;;;20.50;15.20;;;;;;;20.55;74.96;98471.02;105024;1258;99257;-62
2023/06/21 02:33:55;;;;;;;21.90;16.20;;;;;;;20.53;75.26;98473.71;105010;1269;99501;-60
2023/06/21 02:36:26;;;;;;;23.20;15.40;;;;;;;20.42;75.82;98472.36;105001;1260;112724;-60
2023/06/21 02:38:58;;;;;;;21.80;16.10;;;;;;;20.33;76.09;98474.19;104997;1257;99201;-60
2023/06/21 02:41:25;;;;;;;22.90;16.30;;;;;;;20.32;76.51;98471.16;104966;1271;97982;-60
2023/06/21 02:43:52;;;;;;;21.00;16.50;;;;;;;20.31;76.66;98470.67;104973;1257;99191;-60
2023/06/21 02:46:20;;;;;;;20.60;17.10;;;;;;;20.34;77.12;98472.29;104955;1254;97981;-60
2023/06/21 02:48:47;;;;;;;22.70;17.00;;;;;;;20.36;77.26;98474.45;105036;1254;97994;-60
2023/06/21 02:51:14;;;;;;;23.80;17.50;;;;;;;20.39;77.66;98474.08;104975;1276;99083;-60
2023/06/21 02:53:41;;;;;;;22.70;17.40;;;;;;;20.36;78.20;98471.73;104961;1272;98021;-60
2023/06/21 02:56:08;;;;;;;21.80;17.40;;;;;;;20.33;77.87;98476.25;105018;1257;99155;-60
2023/06/21 02:58:35;;;;;;;22.40;17.00;;;;;;;20.35;77.66;98480.01;105033;1266;98027;-60
2023/06/21 03:01:03;;;;;;;23.20;17.70;;;;;;;20.41;77.67;98484.42;105043;1267;98414;-60
2023/06/21 03:03:30;;;;;;;23.70;17.90;;;;;;;20.39;77.90;98489.02;105088;1257;108491;-60
2023/06/21 03:05:57;;;;;;;22.70;18.00;;;;;;;20.33;77.86;98496.36;104990;1258;99217;-60
2023/06/21 03:08:25;;;;;;;25.60;17.40;;;;;;;20.30;77.83;98497.45;104990;1254;98014;-60
2023/06/21 03:10:52;;;;;;;24.40;17.30;;;;;;;20.33;77.91;98500.82;104827;1259;263269;-60
2023/06/21 03:13:19;;;;;;;23.10;18.20;;;;;;;20.35;77.86;98501.08;104995;1258;99065;-60
2023/06/21 03:15:46;;;;;;;24.40;18.80;;;;;;;20.36;77.84;98500.14;104898;1267;98053;-60
2023/06/21 03:18:15;;;;;;;21.40;17.00;;;;;;;20.38;78.10;98502.92;104885;1258;97915;-60
2023/06/21 03:20:43;;;;;;;25.90;17.90;;;;;;;20.40;78.06;98506.13;105028;1267;97885;-61
2023/06/21 03:23:10;;;;;;;24.40;17.70;;;;;;;20.44;77.82;98511.96;104971;1266;99295;-61
2023/06/21 03:25:37;;;;;;;24.10;18.00;;;;;;;20.51;77.63;98512.74;104973;1268;97900;-61
2023/06/21 03:28:04;;;;;;;24.70;18.00;;;;;;;20.59;77.33;98510.89;104954;1255;98577;-61
2023/06/21 03:30:31;;;;;;;21.40;16.80;;;;;;;20.70;77.23;98510.58;104999;1257;97848;-61
2023/06/21 03:32:59;;;;;;;22.60;18.00;;;;;;;20.78;77.14;98513.02;105020;1254;98327;-61
2023/06/21 03:35:29;;;;;;;23.00;18.20;;;;;;;20.84;76.76;98517.13;105014;1257;99201;-61
2023/06/21 03:37:56;;;;;;;25.70;18.50;;;;;;;20.91;76.79;98519.81;105045;1253;100013;-61
2023/06/21 03:40:23;;;;;;;24.40;18.30;;;;;;;21.00;76.91;98522.84;105011;1270;97975;-61
2023/06/21 03:42:50;;;;;;;23.80;18.40;;;;;;;21.08;76.69;98524.87;105016;1272;98668;-61
2023/06/21 03:45:17;;;;;;;22.00;17.60;;;;;;;21.16;76.59;98522.36;105033;1257;97983;-61
2023/06/21 03:47:44;;;;;;;21.80;17.90;;;;;;;21.27;76.62;98521.00;104954;1253;97928;-61
2023/06/21 03:50:13;;;;;;;21.90;17.40;;;;;;;21.41;76.40;98525.29;104927;1260;97916;-63
2023/06/21 03:52:40;;;;;;;25.10;17.30;;;;;;;21.57;76.41;98527.59;104933;1258;97894;-61
2023/06/21 03:55:08;;;;;;;22.50;18.00;;;;;;;21.74;75.79;98529.82;105032;1254;97993;-62
2023/06/21 03:57:36;;;;;;;22.60;17.30;;;;;;;21.87;75.25;98526.21;104987;1257;99207;-61
2023/06/21 04:00:13;;;;;;;23.40;18.30;;;;;;;21.97;74.82;98531.10;104982;1260;111946;-61
2023/06/21 04:02:40;;;;;;;20.60;16.70;;;;;;;22.08;74.66;98537.02;105028;1259;99310;-61
2023/06/21 04:05:10;;;;;;;21.10;17.90;;;;;;;22.18;74.40;98532.41;104986;1272;97897;-61
2023/06/21 04:07:40;;;;;;;23.30;17.80;;;;;;;22.23;73.88;98535.30;105074;1260;97977;-61
2023/06/21 04:10:09;;;;;;;25.20;18.20;;;;;;;22.26;73.86;98532.36;105070;1256;97995;-61
2023/06/21 04:12:36;;;;;;;27.70;18.10;;;;;;;22.35;73.69;98529.02;105092;1258;110917;-61
2023/06/21 04:15:05;;;;;;;25.50;18.10;;;;;;;22.38;73.49;98528.86;105008;1259;99245;-61
2023/06/21 04:17:32;;;;;;;22.30;17.90;;;;;;;22.40;73.42;98529.89;105020;1257;108616;-59
2023/06/21 04:19:59;;;;;;;21.60;17.10;;;;;;;22.48;73.06;98532.85;105093;1257;98821;-59
2023/06/21 04:22:28;;;;;;;24.10;18.20;;;;;;;22.54;72.85;98530.14;105037;1274;97890;-59
2023/06/21 04:24:55;;;;;;;24.30;17.70;;;;;;;22.62;72.73;98534.88;105060;1257;109733;-59
2023/06/21 04:27:22;;;;;;;23.00;16.80;;;;;;;22.72;72.61;98534.63;105078;1267;97925;-59
2023/06/21 04:29:49;;;;;;;20.70;16.90;;;;;;;22.82;72.22;98532.95;105048;1257;99394;-59
2023/06/21 04:32:18;;;;;;;25.70;17.00;;;;;;;22.91;71.62;98532.80;105002;1257;97982;-60
2023/06/21 04:34:48;;;;;;;21.60;15.70;;;;;;;22.96;71.13;98536.05;105035;1253;97901;-60
2023/06/21 04:37:15;;;;;;;19.60;14.50;;;;;;;23.03;70.50;98539.00;105012;1267;112189;-60
2023/06/21 04:39:42;;;;;;;18.00;14.70;;;;;;;23.10;69.79;98541.86;104947;1254;99129;-60
2023/06/21 04:42:09;;;;;;;17.40;13.30;;;;;;;23.14;69.64;98545.04;104987;1253;99544;-60
2023/06/21 04:44:36;;;;;;;20.20;14.40;;;;;;;23.20;69.15;98546.62;105021;1272;97982;-60
2023/06/21 04:47:03;;;;;;;17.30;13.80;;;;;;;23.27;68.72;98548.77;104994;1253;97916;-60
2023/06/21 04:49:30;;;;;;;17.90;13.50;;;;;;;23.33;68.48;98547.23;105060;1258;97902;-60
2023/06/21 04:51:58;;;;;;;19.00;13.60;;;;;;;23.41;68.28;98544.13;104968;1259;97920;-60
2023/06/21 04:54:25;;;;;;;16.50;12.70;;;;;;;23.49;67.80;98541.08;105037;1257;97915;-60
2023/06/21 04:56:53;;;;;;;15.60;12.60;;;;;;;23.60;67.36;98540.30;105023;1259;98061;-60
2023/06/21 04:59:21;;;;;;;15.40;13.10;;;;;;;23.73;66.82;98544.73;105007;1257;98609;-60
2023/06/21 05:01:48;;;;;;;17.60;13.30;;;;;;;23.88;66.47;98543.62;104996;1260;98412;-60
2023/06/21 05:04:16;;;;;;;16.70;12.70;;;;;;;24.03;65.94;98542.02;104978;1259;97926;-60
2023/06/21 05:06:43;;;;;;;21.60;11.50;;;;;;;24.19;65.59;98543.63;104954;1266;97948;-60
2023/06/21 05:09:11;;;;;;;14.30;11.20;;;;;;;24.41;64.54;98545.80;105009;1259;97920;-60
2023/06/21 05:11:38;;;;;;;14.90;10.00;;;;;;;24.54;63.31;98543.39;104997;1257;97916;-60
2023/06/21 05:14:05;;;;;;;16.30;10.60;;;;;;;24.70;63.33;98544.23;104910;1259;97987;-60
2023/06/21 05:16:32;;;;;;;12.10;9.90;;;;;;;24.86;63.00;98540.41;105043;1254;97899;-65
2023/06/21 05:19:00;;;;;;;12.60;9.60;;;;;;;25.01;61.38;98535.09;104910;1266;97977;-65
2023/06/21 05:21:27;;;;;;;13.90;9.00;;;;;;;25.11;60.59;98534.50;105047;1258;97907;-64
2023/06/21 05:24:32;;;;;;;11.30;9.10;;;;;;;25.23;60.51;98533.11;105008;1258;97891;-64
2023/06/21 05:26:59;;;;;;;17.40;10.50;;;;;;;25.37;59.19;98529.26;104721;1273;111470;-64
2023/06/21 05:29:27;;;;;;;35.20;19.10;;;;;;;25.47;59.36;98524.58;104955;1274;99304;-64
2023/06/21 05:31:57;;;;;;;20.80;16.40;;;;;;;25.60;59.26;98526.02;104973;1267;97915;-65
2023/06/21 05:34:37;;;;;;;15.80;9.70;;;;;;;25.77;58.46;98524.48;105011;1257;97973;-64
2023/06/21 05:37:24;;;;;;;10.30;8.30;;;;;;;25.88;57.60;98515.98;105064;1253;98029;-65
2023/06/21 05:40:02;;;;;;;14.60;10.90;;;;;;;25.97;57.45;98514.67;105025;1267;112262;-66
2023/06/21 05:42:42;;;;;;;12.70;10.10;;;;;;;26.08;57.03;98517.63;104947;1257;100097;-65
2023/06/21 05:45:19;;;;;;;11.10;9.00;;;;;;;26.16;56.63;98513.66;104986;1257;108548;-65
2023/06/21 05:47:48;;;;;;;12.70;8.20;;;;;;;26.23;56.48;98511.64;104931;1261;97921;-65
2023/06/21 05:50:15;;;;;;;10.90;8.10;;;;;;;26.24;56.08;98509.45;104874;1268;98372;-66
2023/06/21 05:52:42;;;;;;;10.20;7.90;;;;;;;26.17;55.63;98512.83;104941;1259;98027;-65
2023/06/21 05:55:10;;;;;;;10.70;8.10;;;;;;;26.16;55.84;98516.30;105006;1258;97931;-65
2023/06/21 05:57:37;;;;;;;12.10;9.00;;;;;;;26.22;55.81;98517.73;104998;1258;98425;-65
2023/06/21 06:00:08;;;;;;;12.20;8.50;;;;;;;26.27;56.11;98514.39;105055;1253;99290;-65
2023/06/21 06:02:36;;;;;;;17.50;10.00;;;;;;;26.41;56.15;98510.41;104809;1259;97899;-65
2023/06/21 06:05:04;;;;;;;23.60;11.10;;;;;;;26.55;55.51;98511.31;105052;1258;97903;-64
2023/06/21 06:07:31;;;;;;;20.00;10.10;;;;;;;26.65;55.87;98509.39;105073;1262;98897;-65
2023/06/21 06:09:59;;;;;;;16.80;10.40;;;;;;;26.72;54.75;98510.23;105003;1259;108620;-64
2023/06/21 06:12:26;;;;;;;16.70;9.30;;;;;;;26.75;54.70;98508.02;104991;1261;99335;-65
2023/06/21 06:14:53;;;;;;;16.10;9.10;;;;;;;26.83;55.19;98502.02;105105;1267;98898;-65
2023/06/21 06:17:20;;;;;;;11.10;8.80;;;;;;;27.04;55.03;98504.55;105003;1260;98010;-65
2023/06/21 06:19:47;;;;;;;12.90;8.30;;;;;;;27.27;54.33;98506.60;105046;1258;99199;-65
2023/06/21 06:22:15;;;;;;;14.20;8.30;;;;;;;27.39;53.85;98501.78;105031;1259;98814;-65
2023/06/21 06:24:42;;;;;;;10.80;8.00;;;;;;;27.48;54.09;98508.14;104985;1258;99302;-65
2023/06/21 06:27:09;;;;;;;12.30;8.00;;;;;;;27.53;52.88;98512.75;105045;1257;99299;-66
2023/06/21 06:29:36;;;;;;;13.60;8.00;;;;;;;27.46;52.87;98516.68;105055;1259;97939;-65
2023/06/21 06:32:03;;;;;;;11.70;7.90;;;;;;;27.40;53.11;98521.07;104999;1259;99735;-65
